New Post, Wisconsin
Current Conditions -  °F | °C
As of 5:53 AM on Sunday 23 Nov 2014 (Local Time) from KHYR Reporting Station
Haze Haze  
Wind Chill: 37°   Ceiling: 200
Heat Index: 42°   Visibility: 0.75mi
Dew Point: 42°   Wind: 9mph
Humidity: 100%   Direction: 180°S
Pressure: 29.45"   Gusts: NA
Location:  45.7979°N, 91.3436°W
Report Text: KHYR 231153Z AUTO 18008KT 3/4SM BR OVC002 06/06 A2945 RMK AO2 SLP982 T00560056 10056 20022 56013
Loading
Personal Weather Stations






























Interactive Weather Map New forecast layout! Learn more

10-Day Weather Forecast

Advertisements
Track Severe Weather on mobile